Time;durP1;ratioP1;P1;durP2;ratioP2;P2;SDS_P1;SDS_P2;PMS_P1;PMS_P2;Temp;Humidity;BMP_temperature;BMP_pressure;BME280_temperature;BME280_humidity;BME280_pressure;Samples;Min_cycle;Max_cycle;Signal;HPM_P1;HPM_P2
2020/12/02 00:00:41;;;;;;;62.37;31.50;;;4.30;98.30;;;;;;5139553;23;20452;-82
2020/12/02 00:02:57;;;;;;;64.90;33.70;;;4.30;98.30;;;;;;5147899;23;20452;-82
2020/12/02 00:05:03;;;;;;;60.47;30.70;;;4.30;98.30;;;;;;5140232;23;20433;-80
2020/12/02 00:07:07;;;;;;;66.77;32.37;;;4.40;98.30;;;;;;5141285;23;20508;-79
2020/12/02 00:09:13;;;;;;;62.40;32.17;;;4.40;98.30;;;;;;5140662;23;20475;-79
2020/12/02 00:11:16;;;;;;;62.23;31.40;;;4.40;98.30;;;;;;5140419;23;20528;-81
2020/12/02 00:13:23;;;;;;;56.20;29.52;;;4.30;98.30;;;;;;5140334;23;20460;-81
2020/12/02 00:15:25;;;;;;;69.50;31.30;;;4.30;98.30;;;;;;5140442;23;20264;-81
2020/12/02 00:17:28;;;;;;;56.30;31.80;;;4.30;98.30;;;;;;5142310;23;20504;-80
2020/12/02 00:19:30;;;;;;;57.67;30.20;;;4.30;98.30;;;;;;5142449;23;20435;-81
2020/12/02 00:21:33;;;;;;;53.30;27.77;;;4.30;98.30;;;;;;5151441;23;20199;-81
2020/12/02 00:23:35;;;;;;;62.07;30.77;;;4.30;98.30;;;;;;5151679;23;20846;-81
2020/12/02 00:25:37;;;;;;;61.50;29.40;;;4.20;98.30;;;;;;5142116;23;20530;-81
2020/12/02 00:27:39;;;;;;;57.87;29.50;;;4.20;98.30;;;;;;5148702;23;20437;-81
2020/12/02 00:29:42;;;;;;;59.23;31.17;;;4.20;98.30;;;;;;5149092;23;20451;-82
2020/12/02 00:31:44;;;;;;;60.70;30.87;;;4.20;98.30;;;;;;5150063;23;20508;-81
2020/12/02 00:33:47;;;;;;;64.47;35.93;;;4.20;98.30;;;;;;5148906;23;20449;-81
2020/12/02 00:35:50;;;;;;;64.72;32.22;;;4.20;98.30;;;;;;5149305;23;20470;-81
2020/12/02 00:37:51;;;;;;;70.37;32.27;;;4.20;98.30;;;;;;5149465;23;20240;-80
2020/12/02 00:40:06;;;;;;;70.33;33.03;;;4.30;98.30;;;;;;5150729;23;20454;-79
2020/12/02 00:42:08;;;;;;;60.63;30.43;;;4.20;98.30;;;;;;5151646;23;20464;-82
2020/12/02 00:44:10;;;;;;;61.63;31.50;;;4.30;98.30;;;;;;5151255;23;20445;-82
2020/12/02 00:46:13;;;;;;;64.70;32.47;;;4.30;98.30;;;;;;5152077;23;20838;-81
2020/12/02 00:48:17;;;;;;;64.05;31.58;;;4.20;98.30;;;;;;5152574;23;20481;-81
2020/12/02 00:50:22;;;;;;;63.60;32.70;;;4.20;98.30;;;;;;5151510;23;20206;-81
2020/12/02 00:52:25;;;;;;;64.33;31.40;;;4.20;98.30;;;;;;5142591;23;20446;-82
2020/12/02 00:54:27;;;;;;;59.90;31.27;;;4.20;98.30;;;;;;5144229;23;20456;-82
2020/12/02 00:56:32;;;;;;;60.27;29.90;;;4.20;98.30;;;;;;5143451;23;20215;-82
2020/12/02 00:58:44;;;;;;;63.42;31.25;;;4.20;98.30;;;;;;5150936;23;20484;-82
2020/12/02 01:00:48;;;;;;;61.40;31.45;;;4.20;98.30;;;;;;5143055;23;20241;-81
2020/12/02 01:02:58;;;;;;;65.20;32.10;;;4.10;98.30;;;;;;5151125;23;20285;-80
2020/12/02 01:05:00;;;;;;;62.38;31.40;;;4.10;98.30;;;;;;5143092;23;20433;-81
2020/12/02 01:07:02;;;;;;;66.68;34.50;;;4.00;98.30;;;;;;5142270;23;20206;-80
2020/12/02 01:09:04;;;;;;;62.83;35.10;;;4.00;98.30;;;;;;5142458;23;20252;-81
2020/12/02 01:11:13;;;;;;;62.60;31.90;;;4.00;98.30;;;;;;5150280;23;20476;-79
2020/12/02 01:13:14;;;;;;;56.03;29.27;;;4.00;98.30;;;;;;5142256;23;20237;-82
2020/12/02 01:15:20;;;;;;;63.20;33.00;;;4.00;98.30;;;;;;5142701;23;20812;-81
2020/12/02 01:17:21;;;;;;;58.38;29.23;;;4.00;98.30;;;;;;5142726;23;20475;-82
2020/12/02 01:19:27;;;;;;;69.30;30.55;;;4.00;98.30;;;;;;5142172;23;20523;-81
2020/12/02 01:21:35;;;;;;;68.68;35.00;;;4.00;98.30;;;;;;5142810;23;20274;-82
2020/12/02 01:23:37;;;;;;;66.53;31.33;;;4.00;98.30;;;;;;5151562;23;20256;-81
2020/12/02 01:25:39;;;;;;;64.28;32.20;;;4.00;98.30;;;;;;5143128;23;20452;-80
2020/12/02 01:27:45;;;;;;;64.28;34.70;;;4.00;98.30;;;;;;5143918;23;20209;-78
2020/12/02 01:29:49;;;;;;;64.38;30.75;;;4.10;98.30;;;;;;5151452;23;20284;-81
2020/12/02 01:31:54;;;;;;;61.40;31.90;;;4.00;98.30;;;;;;5150755;23;20202;-81
2020/12/02 01:33:56;;;;;;;62.17;31.25;;;4.00;98.30;;;;;;5150485;23;21085;-82
2020/12/02 01:35:59;;;;;;;53.73;28.97;;;4.00;98.30;;;;;;5150190;23;20209;-82
2020/12/02 01:38:04;;;;;;;62.23;36.57;;;4.00;98.30;;;;;;5150951;23;20448;-81
2020/12/02 01:40:15;;;;;;;58.20;30.73;;;4.00;98.30;;;;;;5151432;23;20468;-82
2020/12/02 01:42:17;;;;;;;54.75;28.13;;;3.90;98.30;;;;;;5143084;23;20292;-81
2020/12/02 01:44:19;;;;;;;58.45;32.90;;;3.90;98.30;;;;;;5150367;23;20276;-81
2020/12/02 01:46:32;;;;;;;62.50;30.07;;;4.00;98.30;;;;;;5159717;23;20202;-81
2020/12/02 01:48:57;;;;;;;61.15;36.58;;;3.90;98.30;;;;;;5159606;23;20541;-80
2020/12/02 01:51:04;;;;;;;64.72;36.28;;;3.90;98.30;;;;;;5150842;23;20317;-82
2020/12/02 01:53:17;;;;;;;64.90;36.58;;;3.90;98.30;;;;;;5159078;23;20209;-81
2020/12/02 01:55:25;;;;;;;57.65;29.98;;;3.90;98.30;;;;;;5158734;23;20297;-80
2020/12/02 01:57:33;;;;;;;65.57;35.50;;;3.90;98.30;;;;;;5149726;23;20217;-81
2020/12/02 01:59:45;;;;;;;62.57;29.73;;;3.80;98.30;;;;;;5154361;23;20539;-82
2020/12/02 02:02:02;;;;;;;57.00;31.25;;;3.70;98.30;;;;;;5147075;23;20471;-80
2020/12/02 02:04:06;;;;;;;54.05;30.10;;;3.70;98.30;;;;;;5155545;23;20202;-82
2020/12/02 02:06:15;;;;;;;54.22;31.23;;;3.70;98.30;;;;;;5146960;23;20210;-82
2020/12/02 02:08:18;;;;;;;57.13;35.95;;;3.70;98.30;;;;;;5155162;23;20213;-81
2020/12/02 02:10:25;;;;;;;62.40;31.48;;;3.70;98.30;;;;;;5146526;23;20237;-83
2020/12/02 02:13:10;;;;;;;61.53;31.57;;;3.80;98.30;;;;;;5154598;23;20218;-81
2020/12/02 02:15:27;;;;;;;66.93;38.92;;;3.80;98.30;;;;;;5155030;23;20540;-82
2020/12/02 02:17:29;;;;;;;68.93;38.20;;;3.90;98.30;;;;;;5147151;23;20595;-83
2020/12/02 02:19:30;;;;;;;60.13;35.33;;;3.90;98.30;;;;;;5153254;23;20209;-82
2020/12/02 02:21:35;;;;;;;61.85;31.88;;;3.90;98.30;;;;;;5145765;23;20214;-83
2020/12/02 02:23:37;;;;;;;65.27;37.20;;;3.90;98.30;;;;;;5153411;23;20761;-81
2020/12/02 02:25:39;;;;;;;59.65;31.10;;;3.90;98.30;;;;;;5145714;23;20427;-82
2020/12/02 02:27:42;;;;;;;62.88;32.33;;;3.90;98.30;;;;;;5143752;23;20276;-82
2020/12/02 02:29:46;;;;;;;69.45;37.50;;;3.80;98.30;;;;;;5145848;23;20206;-82
2020/12/02 02:31:55;;;;;;;67.07;32.30;;;3.80;98.30;;;;;;5154257;23;20284;-83
2020/12/02 02:33:58;;;;;;;64.10;33.30;;;3.70;98.30;;;;;;5153916;23;20242;-82
2020/12/02 02:36:00;;;;;;;62.30;36.78;;;3.80;98.30;;;;;;5145661;23;20213;-82
2020/12/02 02:38:05;;;;;;;62.33;32.25;;;3.70;98.30;;;;;;5153134;23;20584;-82
2020/12/02 02:40:10;;;;;;;65.77;31.73;;;3.60;98.30;;;;;;5152660;23;20229;-82
2020/12/02 02:42:29;;;;;;;67.82;36.63;;;3.70;98.30;;;;;;5152889;23;20455;-81
2020/12/02 02:44:32;;;;;;;64.85;33.35;;;3.80;98.30;;;;;;5153034;23;20211;-82
2020/12/02 02:46:34;;;;;;;58.90;32.67;;;3.80;98.30;;;;;;5153552;23;20194;-82
2020/12/02 02:48:36;;;;;;;63.58;33.20;;;3.80;98.30;;;;;;5144225;23;20305;-84
2020/12/02 02:50:38;;;;;;;60.80;30.00;;;3.90;98.30;;;;;;5144842;23;20284;-81
2020/12/02 02:52:41;;;;;;;65.00;32.22;;;3.90;98.30;;;;;;5143998;23;20201;-79
2020/12/02 02:54:43;;;;;;;58.28;30.95;;;4.00;98.30;;;;;;5141184;23;20713;-81
2020/12/02 02:56:45;;;;;;;54.10;28.60;;;3.90;98.30;;;;;;5141085;23;20229;-81
2020/12/02 02:58:47;;;;;;;57.65;30.10;;;3.90;98.30;;;;;;5140897;23;20268;-81
2020/12/02 03:00:49;;;;;;;65.53;31.73;;;4.00;98.30;;;;;;5140659;23;20202;-80
2020/12/02 03:02:51;;;;;;;53.92;29.85;;;3.90;98.30;;;;;;5141456;23;20457;-81
2020/12/02 03:04:54;;;;;;;57.10;29.43;;;3.90;98.30;;;;;;5149574;23;20194;-82
2020/12/02 03:06:56;;;;;;;55.17;30.08;;;3.90;98.30;;;;;;5149981;23;20473;-81
2020/12/02 03:08:58;;;;;;;56.30;28.23;;;3.90;98.30;;;;;;5148838;23;20225;-81
2020/12/02 03:11:02;;;;;;;57.70;27.17;;;3.90;98.30;;;;;;5148456;23;20208;-81
2020/12/02 03:13:14;;;;;;;56.70;29.00;;;3.90;98.30;;;;;;5148997;23;20455;-81
2020/12/02 03:15:17;;;;;;;57.78;29.38;;;3.90;98.30;;;;;;5140715;23;21297;-80
2020/12/02 03:17:23;;;;;;;58.10;28.52;;;3.90;98.30;;;;;;5140900;23;20684;-81
2020/12/02 03:19:27;;;;;;;62.75;34.15;;;3.90;98.30;;;;;;5147973;23;20618;-81
2020/12/02 03:21:29;;;;;;;54.78;31.17;;;3.90;98.30;;;;;;5148054;23;20198;-81
2020/12/02 03:23:31;;;;;;;60.97;30.37;;;3.90;98.30;;;;;;5140864;23;20213;-81
2020/12/02 03:25:34;;;;;;;57.58;32.83;;;3.80;98.30;;;;;;5140817;23;20452;-80
2020/12/02 03:27:35;;;;;;;55.97;29.13;;;3.80;98.30;;;;;;5149414;23;20208;-79
2020/12/02 03:29:37;;;;;;;53.38;29.73;;;3.80;98.30;;;;;;5141237;23;20233;-82
2020/12/02 03:31:40;;;;;;;61.78;32.95;;;3.80;98.30;;;;;;5141961;23;20245;-82
2020/12/02 03:33:43;;;;;;;71.05;30.20;;;3.80;98.30;;;;;;5142696;23;20202;-81
2020/12/02 03:35:45;;;;;;;59.60;29.40;;;3.80;98.30;;;;;;5151414;23;20199;-81
2020/12/02 03:37:47;;;;;;;55.70;32.42;;;3.70;98.30;;;;;;5152231;23;20225;-82
2020/12/02 03:39:49;;;;;;;55.65;28.20;;;3.70;98.30;;;;;;5142950;23;20206;-82
2020/12/02 03:41:51;;;;;;;63.42;31.58;;;3.70;98.30;;;;;;5143388;23;20285;-80
2020/12/02 03:43:53;;;;;;;54.07;28.60;;;3.80;98.30;;;;;;5151274;23;20241;-82
2020/12/02 03:45:55;;;;;;;63.60;32.43;;;3.70;98.30;;;;;;5143357;23;20454;-82
2020/12/02 03:47:56;;;;;;;63.07;34.13;;;3.70;98.30;;;;;;5151253;23;20573;-82
2020/12/02 03:49:59;;;;;;;59.63;28.77;;;3.80;98.30;;;;;;5143428;23;20453;-81
2020/12/02 03:52:01;;;;;;;57.57;29.13;;;3.80;98.30;;;;;;5151733;23;20213;-81
2020/12/02 03:54:04;;;;;;;60.08;30.60;;;3.70;98.30;;;;;;5148984;23;20979;-78
2020/12/02 03:56:07;;;;;;;59.88;31.27;;;3.80;98.30;;;;;;5149157;23;20281;-80
2020/12/02 03:58:09;;;;;;;58.15;30.52;;;3.90;98.30;;;;;;5149010;23;20264;-78
2020/12/02 04:00:12;;;;;;;58.78;31.45;;;3.90;98.30;;;;;;5148541;23;20197;-78
2020/12/02 04:02:14;;;;;;;62.72;31.65;;;3.90;98.30;;;;;;5140435;23;20644;-82
2020/12/02 04:04:16;;;;;;;71.63;33.75;;;4.00;98.30;;;;;;5140495;23;20206;-79
2020/12/02 04:06:19;;;;;;;63.40;34.67;;;3.90;98.30;;;;;;5148503;23;20202;-78
2020/12/02 04:08:21;;;;;;;69.50;31.23;;;3.90;98.30;;;;;;5148682;23;20206;-79
2020/12/02 04:10:23;;;;;;;54.08;28.60;;;4.00;98.30;;;;;;5140639;23;20288;-78
2020/12/02 04:12:26;;;;;;;56.88;29.92;;;3.90;98.30;;;;;;5148346;23;20202;-78
2020/12/02 04:14:28;;;;;;;60.00;31.30;;;3.90;98.30;;;;;;5148749;23;20575;-80
2020/12/02 04:16:30;;;;;;;68.90;37.65;;;3.80;98.30;;;;;;5148618;23;20210;-78
2020/12/02 04:18:32;;;;;;;63.55;36.53;;;3.90;98.30;;;;;;5148396;23;20212;-80
2020/12/02 04:20:34;;;;;;;61.47;35.65;;;3.80;98.30;;;;;;5140369;23;20252;-79
2020/12/02 04:22:36;;;;;;;63.53;32.55;;;3.90;98.30;;;;;;5140269;23;20429;-78
2020/12/02 04:24:38;;;;;;;62.95;35.78;;;3.90;98.30;;;;;;5148921;23;20691;-79
2020/12/02 04:26:40;;;;;;;65.25;33.55;;;3.80;98.30;;;;;;5149082;23;20582;-78
2020/12/02 04:28:42;;;;;;;62.38;31.73;;;3.80;98.30;;;;;;5140551;23;20210;-79
2020/12/02 04:30:45;;;;;;;69.28;35.90;;;3.80;98.30;;;;;;5148567;23;20277;-80
2020/12/02 04:32:47;;;;;;;65.18;37.25;;;3.70;98.30;;;;;;5149174;23;20220;-79
2020/12/02 04:34:49;;;;;;;61.75;37.05;;;3.70;98.30;;;;;;5148547;23;20537;-79
2020/12/02 04:36:50;;;;;;;66.03;31.10;;;3.70;98.30;;;;;;5140370;23;20202;-79
2020/12/02 04:38:54;;;;;;;65.63;33.45;;;3.80;98.30;;;;;;5140247;23;20214;-79
2020/12/02 04:40:56;;;;;;;66.35;33.20;;;3.70;98.30;;;;;;5148540;23;20236;-79
2020/12/02 04:43:03;;;;;;;60.72;30.52;;;3.80;98.30;;;;;;5148549;23;20202;-79
2020/12/02 04:45:11;;;;;;;59.97;30.73;;;3.80;98.30;;;;;;5140505;23;20676;-79
2020/12/02 04:47:13;;;;;;;60.28;36.17;;;3.80;98.30;;;;;;5148597;23;20661;-80
2020/12/02 04:49:20;;;;;;;57.38;34.15;;;3.70;98.30;;;;;;5140120;23;20206;-80
2020/12/02 04:51:24;;;;;;;64.40;35.33;;;3.70;98.30;;;;;;5140566;23;20680;-80
2020/12/02 04:53:27;;;;;;;59.00;30.10;;;3.80;98.30;;;;;;5148628;23;20198;-80
2020/12/02 04:55:29;;;;;;;66.65;38.53;;;3.90;98.30;;;;;;5149438;23;20257;-79
2020/12/02 04:57:31;;;;;;;70.70;36.15;;;3.90;98.30;;;;;;5141084;23;20240;-79
2020/12/02 04:59:35;;;;;;;70.30;34.00;;;3.80;98.30;;;;;;5149211;23;20685;-79
2020/12/02 05:01:48;;;;;;;62.80;30.25;;;3.80;98.30;;;;;;5140529;23;20248;-79
2020/12/02 05:04:01;;;;;;;60.40;31.25;;;3.90;98.30;;;;;;5140787;23;20272;-79
2020/12/02 05:06:03;;;;;;;59.90;32.78;;;3.90;98.30;;;;;;5148794;23;20202;-82
2020/12/02 05:08:20;;;;;;;64.50;31.55;;;3.80;98.30;;;;;;5149199;23;20289;-80
2020/12/02 05:10:22;;;;;;;61.70;34.67;;;4.00;98.30;;;;;;5148927;23;20202;-79
2020/12/02 05:12:28;;;;;;;54.67;29.58;;;3.90;98.30;;;;;;5140650;23;20202;-78
2020/12/02 05:14:33;;;;;;;61.63;32.50;;;3.80;98.30;;;;;;5148698;23;20198;-79
2020/12/02 05:16:35;;;;;;;63.00;30.80;;;3.80;98.30;;;;;;5148641;23;20280;-80
2020/12/02 05:18:37;;;;;;;57.38;30.63;;;3.80;98.30;;;;;;5149182;23;20296;-80
2020/12/02 05:20:39;;;;;;;61.45;34.08;;;3.70;98.30;;;;;;5148771;23;20273;-79
2020/12/02 05:22:44;;;;;;;53.28;31.45;;;3.70;98.30;;;;;;5148716;23;20237;-80
2020/12/02 05:24:48;;;;;;;64.73;30.43;;;3.70;98.30;;;;;;5149353;23;20200;-79
2020/12/02 05:26:51;;;;;;;59.83;37.20;;;3.70;98.30;;;;;;5150077;23;20448;-80
2020/12/02 05:28:54;;;;;;;61.63;31.70;;;3.70;98.30;;;;;;5150549;23;20202;-81
2020/12/02 05:31:05;;;;;;;60.92;29.85;;;3.80;98.30;;;;;;5141628;23;20281;-79
2020/12/02 05:33:18;;;;;;;56.80;30.53;;;3.80;98.30;;;;;;5141745;23;20844;-80
2020/12/02 05:35:23;;;;;;;58.63;36.15;;;3.70;98.30;;;;;;5141701;23;20503;-79
2020/12/02 05:37:33;;;;;;;58.70;33.72;;;3.80;98.30;;;;;;5141805;23;20206;-80
2020/12/02 05:39:46;;;;;;;60.53;35.22;;;3.80;98.30;;;;;;5141566;23;20272;-79
2020/12/02 05:41:53;;;;;;;61.45;31.63;;;3.80;98.30;;;;;;5149961;23;20202;-79
2020/12/02 05:43:59;;;;;;;61.63;30.52;;;3.80;98.30;;;;;;5150127;23;20710;-79
2020/12/02 05:46:01;;;;;;;60.72;30.25;;;3.90;98.30;;;;;;5141603;23;20210;-80
2020/12/02 05:48:07;;;;;;;58.97;30.30;;;3.80;98.30;;;;;;5150255;23;20207;-80
2020/12/02 05:50:13;;;;;;;63.15;30.20;;;3.70;98.30;;;;;;5150631;23;20209;-80
2020/12/02 05:52:21;;;;;;;62.60;34.20;;;3.80;98.30;;;;;;5149824;23;20194;-79
2020/12/02 05:54:26;;;;;;;65.15;35.30;;;3.80;98.30;;;;;;5150080;23;20533;-78
2020/12/02 05:56:28;;;;;;;70.63;32.97;;;3.80;98.30;;;;;;5142287;23;20236;-79
2020/12/02 05:58:32;;;;;;;58.53;30.02;;;3.80;98.30;;;;;;5149514;23;20455;-81
2020/12/02 06:00:36;;;;;;;55.92;30.77;;;3.80;98.30;;;;;;5149988;23;20198;-80
2020/12/02 06:02:38;;;;;;;55.03;30.75;;;3.80;98.30;;;;;;5149616;23;20202;-79
2020/12/02 06:04:41;;;;;;;61.90;35.22;;;3.90;98.30;;;;;;5150129;23;20680;-80
2020/12/02 06:06:53;;;;;;;53.17;28.45;;;3.90;98.30;;;;;;5150655;23;20225;-80
2020/12/02 06:08:55;;;;;;;65.07;37.08;;;3.80;98.30;;;;;;5150091;23;20657;-79
2020/12/02 06:10:59;;;;;;;57.28;30.10;;;3.80;98.30;;;;;;5149699;23;20237;-80
2020/12/02 06:13:07;;;;;;;59.80;30.67;;;3.90;98.30;;;;;;5150169;23;20665;-79
2020/12/02 06:15:18;;;;;;;61.45;30.42;;;3.90;98.30;;;;;;5150212;23;20595;-80
2020/12/02 06:17:26;;;;;;;61.88;31.58;;;3.90;98.30;;;;;;5149690;23;20265;-79
2020/12/02 06:19:31;;;;;;;57.70;35.80;;;3.90;98.30;;;;;;5141493;23;20210;-80
2020/12/02 06:21:38;;;;;;;60.55;35.70;;;3.80;98.30;;;;;;5149640;23;20238;-78
2020/12/02 06:23:45;;;;;;;57.58;29.30;;;3.90;98.30;;;;;;5149485;23;20205;-79
2020/12/02 06:25:51;;;;;;;59.03;31.52;;;3.80;98.30;;;;;;5149741;23;20205;-78
2020/12/02 06:27:52;;;;;;;59.95;30.80;;;3.80;98.30;;;;;;5149492;23;20206;-80
2020/12/02 06:29:58;;;;;;;57.63;28.83;;;3.80;98.30;;;;;;5141348;23;20234;-79
2020/12/02 06:32:10;;;;;;;58.95;30.30;;;3.80;98.30;;;;;;5149179;23;20206;-78
2020/12/02 06:34:32;;;;;;;63.10;30.10;;;3.80;98.30;;;;;;5149874;23;20664;-79
2020/12/02 06:36:55;;;;;;;57.35;29.63;;;3.80;98.30;;;;;;5150224;23;20280;-79
2020/12/02 06:39:23;;;;;;;59.85;35.28;;;3.80;98.30;;;;;;5149419;23;20214;-79
2020/12/02 06:41:29;;;;;;;57.70;35.85;;;3.80;98.30;;;;;;5150267;23;20224;-79
2020/12/02 06:43:34;;;;;;;56.73;28.77;;;3.90;98.30;;;;;;5150227;23;20205;-80
2020/12/02 06:45:38;;;;;;;52.27;31.00;;;3.90;98.30;;;;;;5150316;23;20459;-78
2020/12/02 06:47:56;;;;;;;60.38;29.83;;;4.00;98.30;;;;;;5149729;23;20476;-78
2020/12/02 06:50:07;;;;;;;52.33;29.55;;;3.90;98.30;;;;;;5149123;23;20255;-78
2020/12/02 06:52:11;;;;;;;60.70;37.05;;;3.90;98.30;;;;;;5149249;23;20272;-78
2020/12/02 06:54:15;;;;;;;53.42;32.25;;;3.90;98.30;;;;;;5149011;23;20239;-79
2020/12/02 06:56:18;;;;;;;54.38;31.48;;;3.90;98.30;;;;;;5141483;23;20218;-80
2020/12/02 06:58:21;;;;;;;61.20;35.13;;;3.90;98.30;;;;;;5149409;23;20261;-79
2020/12/02 07:00:26;;;;;;;64.32;31.33;;;3.90;98.30;;;;;;5149354;23;20480;-78
2020/12/02 07:02:36;;;;;;;59.17;31.80;;;3.90;98.30;;;;;;5149305;23;20611;-78
2020/12/02 07:04:39;;;;;;;57.95;33.05;;;3.80;98.30;;;;;;5141273;23;20236;-79
2020/12/02 07:06:41;;;;;;;59.00;30.67;;;3.80;98.30;;;;;;5149701;23;20207;-79
2020/12/02 07:08:46;;;;;;;57.28;33.75;;;3.80;98.30;;;;;;5149121;23;20208;-80
2020/12/02 07:11:02;;;;;;;51.53;29.48;;;3.90;98.30;;;;;;5149617;23;20205;-81
2020/12/02 07:13:05;;;;;;;53.45;34.45;;;3.90;98.30;;;;;;5149669;23;20277;-80
2020/12/02 07:15:06;;;;;;;53.42;28.55;;;3.90;98.30;;;;;;5141682;23;20238;-80
2020/12/02 07:17:13;;;;;;;57.95;29.38;;;3.90;98.30;;;;;;5149391;23;20226;-80
2020/12/02 07:19:19;;;;;;;65.03;33.95;;;3.90;98.30;;;;;;5149355;23;20198;-82
2020/12/02 07:21:30;;;;;;;102.05;49.05;;;3.90;98.30;;;;;;5149249;23;20273;-80
2020/12/02 07:23:33;;;;;;;60.17;30.30;;;4.00;98.30;;;;;;5149433;23;20253;-81
2020/12/02 07:25:34;;;;;;;56.78;29.98;;;3.90;98.30;;;;;;5141838;23;20975;-80
2020/12/02 07:27:41;;;;;;;54.50;28.83;;;3.90;98.30;;;;;;5149929;23;20209;-80
2020/12/02 07:29:43;;;;;;;51.83;29.30;;;4.00;98.30;;;;;;5141729;23;20460;-80
2020/12/02 07:31:45;;;;;;;53.80;29.13;;;4.00;98.30;;;;;;5141914;23;20464;-80
2020/12/02 07:34:01;;;;;;;59.22;28.17;;;4.00;98.30;;;;;;5141985;23;20513;-83
2020/12/02 07:36:07;;;;;;;59.08;29.67;;;3.90;98.30;;;;;;5156286;23;20205;-79
2020/12/02 07:38:10;;;;;;;64.65;30.67;;;4.00;98.30;;;;;;5149013;23;20225;-79
2020/12/02 07:40:30;;;;;;;63.33;34.78;;;4.00;98.30;;;;;;5141519;23;21010;-78
2020/12/02 07:42:35;;;;;;;54.47;34.45;;;4.10;98.30;;;;;;5149917;23;20206;-79
2020/12/02 07:44:40;;;;;;;57.50;29.55;;;4.00;98.30;;;;;;5150097;23;20526;-80
2020/12/02 07:46:43;;;;;;;54.17;32.40;;;4.00;98.30;;;;;;5149417;23;20208;-80
2020/12/02 07:48:53;;;;;;;52.88;33.10;;;3.90;98.30;;;;;;5149400;23;20202;-80
2020/12/02 07:50:58;;;;;;;53.65;27.20;;;3.90;98.30;;;;;;5149740;23;20212;-80
2020/12/02 07:53:09;;;;;;;52.20;33.40;;;3.90;98.30;;;;;;5150333;23;20209;-79
2020/12/02 07:55:17;;;;;;;53.55;31.23;;;3.90;98.30;;;;;;5150044;23;20201;-79
2020/12/02 07:57:22;;;;;;;52.58;29.17;;;3.80;98.30;;;;;;5150045;23;20201;-79
2020/12/02 07:59:28;;;;;;;54.20;31.08;;;3.80;98.30;;;;;;5151494;23;20206;-81
2020/12/02 08:01:51;;;;;;;60.53;29.50;;;3.80;98.30;;;;;;5150388;23;20213;-80
2020/12/02 08:03:53;;;;;;;49.13;28.08;;;3.80;98.30;;;;;;5148540;23;20213;-79
2020/12/02 08:06:01;;;;;;;53.72;32.30;;;3.70;98.30;;;;;;5141006;23;20271;-79
2020/12/02 08:08:04;;;;;;;50.65;29.10;;;3.80;98.30;;;;;;5131804;23;20224;-78
2020/12/02 08:10:08;;;;;;;52.60;27.63;;;3.70;98.30;;;;;;5140850;23;20769;-79
2020/12/02 08:12:12;;;;;;;55.05;32.13;;;3.70;98.30;;;;;;5139737;23;20549;-78
2020/12/02 08:14:20;;;;;;;61.15;32.83;;;3.80;98.30;;;;;;5139770;23;20720;-79
2020/12/02 08:16:25;;;;;;;49.63;30.83;;;3.80;98.30;;;;;;5140590;23;20224;-83
2020/12/02 08:18:51;;;;;;;56.95;29.42;;;3.70;98.30;;;;;;5140210;23;20209;-79
2020/12/02 08:20:53;;;;;;;57.03;30.45;;;3.70;98.30;;;;;;5148454;23;20198;-80
2020/12/02 08:22:56;;;;;;;54.35;33.35;;;3.80;98.30;;;;;;5149120;23;20198;-78
2020/12/02 08:25:12;;;;;;;54.67;31.17;;;3.80;98.30;;;;;;5140604;23;20662;-79
2020/12/02 08:27:16;;;;;;;55.70;30.55;;;3.80;98.30;;;;;;5142652;23;20206;-80
2020/12/02 08:29:21;;;;;;;55.88;31.10;;;3.90;98.30;;;;;;5143708;23;20238;-80
2020/12/02 08:31:26;;;;;;;47.80;27.00;;;3.90;98.30;;;;;;5143032;23;20205;-80
2020/12/02 08:33:28;;;;;;;54.80;32.92;;;3.90;98.30;;;;;;5143707;23;20452;-80
2020/12/02 08:35:36;;;;;;;55.90;34.00;;;3.90;98.30;;;;;;5144155;23;20205;-80
2020/12/02 08:37:38;;;;;;;61.75;32.63;;;3.90;98.30;;;;;;5143196;23;20470;-80
2020/12/02 08:39:42;;;;;;;65.80;33.65;;;3.80;98.30;;;;;;5144873;23;20210;-80
2020/12/02 08:41:48;;;;;;;60.63;34.03;;;3.90;98.30;;;;;;5146905;23;20212;-80
2020/12/02 08:43:50;;;;;;;52.17;28.80;;;3.90;98.30;;;;;;5145724;23;20285;-79
2020/12/02 08:45:59;;;;;;;51.85;31.33;;;3.90;98.30;;;;;;5142580;23;20485;-80
2020/12/02 08:48:00;;;;;;;55.10;28.38;;;3.90;98.30;;;;;;5142294;23;20282;-80
2020/12/02 08:50:03;;;;;;;54.30;33.97;;;4.00;98.30;;;;;;5142706;23;20293;-80
2020/12/02 08:52:07;;;;;;;56.10;33.50;;;3.90;98.30;;;;;;5151178;23;20445;-80
2020/12/02 08:54:10;;;;;;;53.40;29.13;;;4.00;98.30;;;;;;5142880;23;20981;-80
2020/12/02 08:56:23;;;;;;;45.27;27.37;;;4.10;98.30;;;;;;5142736;23;20549;-80
2020/12/02 08:58:26;;;;;;;46.80;26.00;;;4.10;98.30;;;;;;5143447;23;20509;-80
2020/12/02 09:00:27;;;;;;;51.33;29.13;;;4.00;98.30;;;;;;5153158;23;20417;-80
2020/12/02 09:02:31;;;;;;;49.87;28.60;;;4.00;98.30;;;;;;5144975;23;20448;-80
2020/12/02 09:04:33;;;;;;;48.78;26.00;;;4.00;98.30;;;;;;5147072;23;20485;-80
2020/12/02 09:06:35;;;;;;;43.87;24.87;;;4.10;98.30;;;;;;5150213;23;20210;-80
2020/12/02 09:08:37;;;;;;;59.50;31.00;;;4.00;98.30;;;;;;5157068;23;20482;-80
2020/12/02 09:10:39;;;;;;;55.53;32.93;;;4.10;98.30;;;;;;5149475;23;20436;-80
2020/12/02 09:12:41;;;;;;;116.97;54.23;;;4.20;98.30;;;;;;5157135;23;20934;-80
2020/12/02 09:14:46;;;;;;;52.03;26.53;;;4.20;98.30;;;;;;5149188;23;20493;-80
2020/12/02 09:16:48;;;;;;;42.60;24.27;;;4.20;98.30;;;;;;5132654;23;20419;-80
2020/12/02 09:18:50;;;;;;;44.27;27.03;;;4.10;98.30;;;;;;5131137;23;20455;-80
2020/12/02 09:20:52;;;;;;;46.50;27.23;;;4.20;98.30;;;;;;5128112;23;20435;-80
2020/12/02 09:22:53;;;;;;;48.77;30.10;;;4.20;98.30;;;;;;5121217;23;20459;-80
2020/12/02 09:24:55;;;;;;;48.57;25.70;;;4.20;98.30;;;;;;5120952;23;20455;-80
2020/12/02 09:26:57;;;;;;;44.77;28.60;;;4.20;98.30;;;;;;5120655;23;20491;-80
2020/12/02 09:29:00;;;;;;;44.60;25.27;;;4.20;98.30;;;;;;5128841;23;20536;-79
2020/12/02 09:31:03;;;;;;;44.53;27.47;;;4.20;98.30;;;;;;5128357;23;20484;-80
2020/12/02 09:33:04;;;;;;;47.45;30.45;;;4.30;98.30;;;;;;5120211;23;20472;-80
2020/12/02 09:35:07;;;;;;;45.07;25.37;;;4.30;98.30;;;;;;5127767;23;20191;-80
2020/12/02 09:37:12;;;;;;;48.43;26.60;;;4.20;98.30;;;;;;5118738;23;20517;-80
2020/12/02 09:39:15;;;;;;;46.70;27.43;;;4.20;98.30;;;;;;5118545;23;20481;-80
2020/12/02 09:41:34;;;;;;;46.73;27.97;;;4.10;98.30;;;;;;5116349;23;20455;-80
2020/12/02 09:43:52;;;;;;;45.08;26.17;;;4.10;98.30;;;;;;5117019;23;20463;-80
2020/12/02 09:46:03;;;;;;;49.47;26.20;;;4.10;98.30;;;;;;5118612;23;20202;-80
2020/12/02 09:48:11;;;;;;;43.70;27.75;;;4.20;98.30;;;;;;5119987;23;20431;-81
2020/12/02 09:50:13;;;;;;;50.50;27.23;;;4.10;98.30;;;;;;5132074;23;20222;-80
2020/12/02 09:52:31;;;;;;;45.90;28.90;;;4.20;98.30;;;;;;5118000;23;20449;-81
2020/12/02 09:54:39;;;;;;;48.22;32.22;;;4.20;98.30;;;;;;5117669;23;20286;-79
2020/12/02 09:56:42;;;;;;;47.80;31.63;;;4.10;98.30;;;;;;5125784;23;20224;-80
2020/12/02 09:58:44;;;;;;;46.10;29.67;;;3.90;98.30;;;;;;5117702;23;20740;-80
2020/12/02 10:00:46;;;;;;;45.00;27.92;;;3.90;98.30;;;;;;5127216;23;20242;-80
2020/12/02 10:03:26;;;;;;;49.67;30.27;;;3.90;98.30;;;;;;5119330;23;20210;-79
2020/12/02 10:06:06;;;;;;;45.65;30.42;;;3.80;98.30;;;;;;5092679;23;20222;-80
2020/12/02 10:08:15;;;;;;;44.78;31.00;;;3.70;98.30;;;;;;5118081;23;20241;-79
2020/12/02 10:10:40;;;;;;;46.22;31.48;;;3.80;98.30;;;;;;5126416;23;20205;-80
2020/12/02 10:12:55;;;;;;;47.53;29.23;;;3.70;98.30;;;;;;5126912;23;20199;-80
2020/12/02 10:15:15;;;;;;;44.65;29.10;;;3.70;98.30;;;;;;5121592;23;20281;-80
2020/12/02 10:17:35;;;;;;;46.03;28.92;;;3.60;98.30;;;;;;5152172;23;20220;-80
2020/12/02 10:19:57;;;;;;;48.53;26.70;;;3.70;98.30;;;;;;5144296;23;20578;-80
2020/12/02 10:22:18;;;;;;;42.90;27.10;;;3.70;98.30;;;;;;5142935;23;20986;-80
2020/12/02 10:24:32;;;;;;;47.58;31.05;;;3.70;98.30;;;;;;5143646;23;20300;-80
2020/12/02 10:27:09;;;;;;;42.88;24.80;;;3.70;98.30;;;;;;5144838;23;20317;-79
2020/12/02 10:29:13;;;;;;;42.50;27.45;;;3.60;98.30;;;;;;5134250;23;20244;-80
2020/12/02 10:31:21;;;;;;;50.22;30.88;;;3.70;98.30;;;;;;5146291;23;20202;-80
2020/12/02 10:33:49;;;;;;;54.07;31.43;;;3.80;98.30;;;;;;5156810;23;20201;-80
2020/12/02 10:35:51;;;;;;;42.88;26.98;;;3.90;98.30;;;;;;5148846;23;20528;-80
2020/12/02 10:37:57;;;;;;;42.90;26.60;;;3.80;98.30;;;;;;5144742;23;20220;-80
2020/12/02 10:39:59;;;;;;;43.25;25.88;;;3.90;98.30;;;;;;5143506;23;20210;-80
2020/12/02 10:42:14;;;;;;;44.42;26.10;;;3.80;98.30;;;;;;5142857;23;20209;-80
2020/12/02 10:44:47;;;;;;;48.63;27.45;;;3.90;98.30;;;;;;5143045;23;20300;-80
2020/12/02 10:47:06;;;;;;;46.83;30.50;;;3.80;98.30;;;;;;5142674;23;20212;-79